createdAt,value
2017-05-03T00:00:00.937Z,1017.63
2017-05-03T00:00:41.830Z,1017.59
2017-05-03T00:01:22.700Z,1017.61
2017-05-03T00:02:03.584Z,1017.63
2017-05-03T00:02:44.467Z,1017.62
2017-05-03T00:03:25.334Z,1017.6
2017-05-03T00:04:06.204Z,1017.64
2017-05-03T00:04:47.077Z,1017.62
2017-05-03T00:05:27.956Z,1017.63
2017-05-03T00:06:08.852Z,1017.67
2017-05-03T00:06:49.729Z,1017.66
2017-05-03T00:07:30.634Z,1017.66
2017-05-03T00:08:11.483Z,1017.66
2017-05-03T00:08:52.346Z,1017.67
2017-05-03T00:09:33.220Z,1017.69
2017-05-03T00:10:14.110Z,1017.71
2017-05-03T00:10:55.004Z,1017.72
2017-05-03T00:11:35.863Z,1017.7
2017-05-03T00:12:16.724Z,1017.69
2017-05-03T00:12:57.590Z,1017.72
2017-05-03T00:13:38.447Z,1017.71
2017-05-03T00:14:19.286Z,1017.72
2017-05-03T00:15:00.142Z,1017.71
2017-05-03T00:15:41.003Z,1017.69
2017-05-03T00:16:21.857Z,1017.69
2017-05-03T00:17:02.727Z,1017.66
2017-05-03T00:17:43.587Z,1017.69
2017-05-03T00:18:24.462Z,1017.69
2017-05-03T00:19:05.343Z,1017.68
2017-05-03T00:19:46.220Z,1017.7
2017-05-03T00:20:27.088Z,1017.66
2017-05-03T00:21:07.979Z,1017.66
2017-05-03T00:21:48.833Z,1017.68
2017-05-03T00:22:29.718Z,1017.67
2017-05-03T00:23:10.596Z,1017.69
2017-05-03T00:23:51.480Z,1017.72
2017-05-03T00:24:32.353Z,1017.69
2017-05-03T00:25:13.232Z,1017.67
2017-05-03T00:25:54.107Z,1017.65
2017-05-03T00:26:34.998Z,1017.69
2017-05-03T00:27:15.889Z,1017.68
2017-05-03T00:27:56.749Z,1017.65
2017-05-03T00:28:37.630Z,1017.7
2017-05-03T00:29:18.523Z,1017.73
2017-05-03T00:29:59.410Z,1017.68
2017-05-03T00:30:40.288Z,1017.72
2017-05-03T00:31:21.151Z,1017.68
2017-05-03T00:32:02.033Z,1017.72
2017-05-03T00:32:42.875Z,1017.76
2017-05-03T00:33:23.746Z,1017.76
2017-05-03T00:34:04.632Z,1017.81
2017-05-03T00:34:45.525Z,1017.85
2017-05-03T00:35:26.407Z,1017.8
2017-05-03T00:36:07.291Z,1017.81
2017-05-03T00:36:48.184Z,1017.82
2017-05-03T00:37:29.062Z,1017.86
2017-05-03T00:38:09.936Z,1017.84
2017-05-03T00:38:50.811Z,1017.88
2017-05-03T00:39:31.703Z,1017.85
2017-05-03T00:40:12.595Z,1017.89
2017-05-03T00:40:53.453Z,1017.87
2017-05-03T00:41:34.312Z,1017.86
2017-05-03T00:42:15.205Z,1017.86
2017-05-03T00:42:56.099Z,1017.86
2017-05-03T00:43:36.987Z,1017.84
2017-05-03T00:44:17.852Z,1017.87
2017-05-03T00:44:58.740Z,1017.89
2017-05-03T00:45:39.640Z,1017.93
2017-05-03T00:46:20.545Z,1017.94
2017-05-03T00:47:01.375Z,1017.96
2017-05-03T00:47:42.242Z,1017.95
2017-05-03T00:48:23.129Z,1017.98
2017-05-03T00:49:04.018Z,1018
2017-05-03T00:49:44.912Z,1017.99
2017-05-03T00:50:25.773Z,1018.01
2017-05-03T00:51:06.662Z,1017.97
2017-05-03T00:51:47.570Z,1017.99
2017-05-03T00:52:28.448Z,1017.97
2017-05-03T00:53:09.329Z,1017.99
2017-05-03T00:53:50.220Z,1017.99
2017-05-03T00:54:31.102Z,1018
2017-05-03T00:55:12.016Z,1017.98
2017-05-03T00:55:52.890Z,1018.01
2017-05-03T00:56:33.782Z,1017.97
2017-05-03T00:58:42.758Z,1018
2017-05-03T00:59:23.641Z,1017.98
2017-05-03T01:00:04.525Z,1017.97
2017-05-03T01:00:45.400Z,1017.98
2017-05-03T01:01:26.361Z,1018.01
2017-05-03T01:02:07.233Z,1018.04
2017-05-03T01:02:48.107Z,1018.04
2017-05-03T01:03:28.980Z,1018.05
2017-05-03T01:04:09.871Z,1018.04
2017-05-03T01:04:50.770Z,1018.04
2017-05-03T01:05:31.607Z,1018.08
2017-05-03T01:06:12.492Z,1018.09
2017-05-03T01:06:53.382Z,1018.08
2017-05-03T01:07:34.276Z,1018.08
2017-05-03T01:08:15.142Z,1018.11
2017-05-03T01:08:56.036Z,1018.08
2017-05-03T01:09:36.922Z,1018.11
2017-05-03T01:10:17.798Z,1018.08
2017-05-03T01:10:58.674Z,1018.08
2017-05-03T01:11:39.555Z,1018.11
2017-05-03T01:12:20.453Z,1018.16
2017-05-03T01:13:01.340Z,1018.14
2017-05-03T01:13:42.219Z,1018.11
2017-05-03T01:14:23.100Z,1018.16
2017-05-03T01:15:03.986Z,1018.14
2017-05-03T01:15:44.862Z,1018.1
2017-05-03T01:16:25.752Z,1018.13
2017-05-03T01:17:06.626Z,1018.09
2017-05-03T01:17:47.530Z,1018.09
2017-05-03T01:18:28.429Z,1018.15
2017-05-03T01:19:09.302Z,1018.14
2017-05-03T01:19:50.186Z,1018.15
2017-05-03T01:20:31.081Z,1018.17
2017-05-03T01:21:11.972Z,1018.17
2017-05-03T01:21:52.815Z,1018.19
2017-05-03T01:22:33.704Z,1018.18
2017-05-03T01:23:14.586Z,1018.21
2017-05-03T01:23:55.473Z,1018.23
2017-05-03T01:24:36.336Z,1018.22
2017-05-03T01:25:17.223Z,1018.23
2017-05-03T01:25:58.102Z,1018.26
2017-05-03T01:26:38.975Z,1018.28
2017-05-03T01:27:19.850Z,1018.31
2017-05-03T01:28:00.743Z,1018.32
2017-05-03T01:28:41.612Z,1018.3
2017-05-03T01:29:22.492Z,1018.35
2017-05-03T01:30:03.368Z,1018.38
2017-05-03T01:30:44.272Z,1018.39
2017-05-03T01:31:25.114Z,1018.39
2017-05-03T01:32:05.980Z,1018.4
2017-05-03T01:32:46.863Z,1018.39
2017-05-03T01:33:27.714Z,1018.37
2017-05-03T01:34:08.589Z,1018.41
2017-05-03T01:34:49.430Z,1018.41
2017-05-03T01:35:30.305Z,1018.4
2017-05-03T01:36:11.165Z,1018.4
2017-05-03T01:36:51.995Z,1018.46
2017-05-03T01:37:32.869Z,1018.44
2017-05-03T01:38:13.728Z,1018.46
2017-05-03T01:38:54.604Z,1018.48
2017-05-03T01:39:35.481Z,1018.46
2017-05-03T01:40:16.358Z,1018.44
2017-05-03T01:40:57.215Z,1018.45
2017-05-03T01:41:38.086Z,1018.5
2017-05-03T01:42:18.969Z,1018.5
2017-05-03T01:42:59.800Z,1018.54
2017-05-03T01:43:40.668Z,1018.52
2017-05-03T01:44:21.539Z,1018.53
2017-05-03T01:45:02.403Z,1018.54
2017-05-03T01:45:43.275Z,1018.51
2017-05-03T01:46:24.172Z,1018.51
2017-05-03T01:47:05.022Z,1018.52
2017-05-03T01:47:45.894Z,1018.51
2017-05-03T01:48:26.791Z,1018.52
2017-05-03T01:49:07.647Z,1018.55
2017-05-03T01:49:48.469Z,1018.58
2017-05-03T01:50:29.351Z,1018.57
2017-05-03T01:51:10.225Z,1018.55
2017-05-03T01:51:51.091Z,1018.54
2017-05-03T01:52:31.964Z,1018.57
2017-05-03T01:53:12.843Z,1018.57
2017-05-03T01:53:53.729Z,1018.6
2017-05-03T01:54:34.614Z,1018.61
2017-05-03T01:55:15.491Z,1018.62
2017-05-03T01:55:56.385Z,1018.59
2017-05-03T01:56:37.265Z,1018.64
2017-05-03T01:57:18.145Z,1018.64
2017-05-03T01:57:59.014Z,1018.62
2017-05-03T01:58:39.887Z,1018.65
2017-05-03T01:59:20.775Z,1018.63
2017-05-03T02:00:01.649Z,1018.66
2017-05-03T02:00:42.552Z,1018.64
2017-05-03T02:01:23.431Z,1018.69
2017-05-03T02:02:04.306Z,1018.69
2017-05-03T02:02:45.202Z,1018.68
2017-05-03T02:03:26.056Z,1018.67
2017-05-03T02:04:06.931Z,1018.67
2017-05-03T02:04:47.809Z,1018.69
2017-05-03T02:05:28.682Z,1018.71
2017-05-03T02:06:09.559Z,1018.69
2017-05-03T02:06:50.408Z,1018.69
2017-05-03T02:07:31.272Z,1018.71
2017-05-03T02:08:12.136Z,1018.68
2017-05-03T02:08:53.008Z,1018.73
2017-05-03T02:09:33.864Z,1018.68
2017-05-03T02:10:14.726Z,1018.7
2017-05-03T02:10:55.618Z,1018.69
2017-05-03T02:11:36.527Z,1018.69
2017-05-03T02:12:17.377Z,1018.64
2017-05-03T02:12:58.244Z,1018.67
2017-05-03T02:13:39.136Z,1018.67
2017-05-03T02:14:19.990Z,1018.64
2017-05-03T02:15:00.865Z,1018.62
2017-05-03T02:15:41.736Z,1018.64
2017-05-03T02:16:22.608Z,1018.66
2017-05-03T02:17:03.486Z,1018.65
2017-05-03T02:17:44.363Z,1018.64
2017-05-03T02:18:25.230Z,1018.64
2017-05-03T02:19:06.118Z,1018.69
2017-05-03T02:19:46.986Z,1018.64
2017-05-03T02:20:27.861Z,1018.66
2017-05-03T02:21:08.728Z,1018.68
2017-05-03T02:21:49.588Z,1018.65
2017-05-03T02:22:30.471Z,1018.66
2017-05-03T02:23:11.357Z,1018.64
2017-05-03T02:23:52.228Z,1018.67
2017-05-03T02:24:33.115Z,1018.64
2017-05-03T02:25:13.988Z,1018.65
2017-05-03T02:25:54.844Z,1018.64
2017-05-03T02:26:35.729Z,1018.62
2017-05-03T02:27:16.607Z,1018.65
2017-05-03T02:27:57.484Z,1018.65
2017-05-03T02:28:38.355Z,1018.65
2017-05-03T02:29:19.238Z,1018.69
2017-05-03T02:30:00.090Z,1018.67
2017-05-03T02:30:40.963Z,1018.68
2017-05-03T02:31:21.837Z,1018.72
2017-05-03T02:32:02.712Z,1018.73
2017-05-03T02:32:43.593Z,1018.72
2017-05-03T02:33:24.464Z,1018.72
2017-05-03T02:34:05.336Z,1018.7
2017-05-03T02:34:46.226Z,1018.74
2017-05-03T02:35:27.094Z,1018.72
2017-05-03T02:36:07.988Z,1018.72
2017-05-03T02:36:48.856Z,1018.73
2017-05-03T02:37:29.726Z,1018.78
2017-05-03T02:38:10.614Z,1018.76
2017-05-03T02:38:51.496Z,1018.76
2017-05-03T02:39:32.380Z,1018.8
2017-05-03T02:40:13.261Z,1018.78
2017-05-03T02:40:54.123Z,1018.78
2017-05-03T02:41:35.008Z,1018.79
2017-05-03T02:42:15.881Z,1018.82
2017-05-03T02:42:56.786Z,1018.78
2017-05-03T02:43:37.641Z,1018.8
2017-05-03T02:44:18.509Z,1018.78
2017-05-03T02:44:59.394Z,1018.8
2017-05-03T02:45:40.276Z,1018.81
2017-05-03T02:46:21.147Z,1018.79
2017-05-03T02:47:02.026Z,1018.76
2017-05-03T02:47:42.897Z,1018.73
2017-05-03T02:48:23.800Z,1018.72
2017-05-03T02:49:04.692Z,1018.72
2017-05-03T02:49:45.570Z,1018.75
2017-05-03T02:50:26.458Z,1018.77
2017-05-03T02:51:07.333Z,1018.78
2017-05-03T02:51:48.208Z,1018.75
2017-05-03T02:52:29.096Z,1018.76
2017-05-03T02:53:09.978Z,1018.75
2017-05-03T02:53:50.847Z,1018.74
2017-05-03T02:54:31.740Z,1018.74
2017-05-03T02:55:12.632Z,1018.74
2017-05-03T02:55:53.508Z,1018.77
2017-05-03T02:56:34.382Z,1018.78
2017-05-03T02:57:15.274Z,1018.8
2017-05-03T02:57:56.154Z,1018.81
2017-05-03T02:58:37.021Z,1018.8
2017-05-03T02:59:17.903Z,1018.82
2017-05-03T02:59:58.775Z,1018.82
2017-05-03T03:00:39.664Z,1018.85
2017-05-03T03:01:20.546Z,1018.82
2017-05-03T03:02:01.418Z,1018.83
2017-05-03T03:02:42.282Z,1018.87
2017-05-03T03:03:23.160Z,1018.82
2017-05-03T03:04:04.037Z,1018.87
2017-05-03T03:04:44.924Z,1018.86
2017-05-03T03:05:25.797Z,1018.85
2017-05-03T03:06:06.666Z,1018.87
2017-05-03T03:06:47.538Z,1018.83
2017-05-03T03:07:28.420Z,1018.85
2017-05-03T03:08:09.306Z,1018.81
2017-05-03T03:08:50.181Z,1018.85
2017-05-03T03:09:31.064Z,1018.83
2017-05-03T03:10:11.965Z,1018.81
2017-05-03T03:10:52.858Z,1018.86
2017-05-03T03:11:33.748Z,1018.85
2017-05-03T03:12:14.621Z,1018.85
2017-05-03T03:12:55.501Z,1018.84
2017-05-03T03:13:36.379Z,1018.86
2017-05-03T03:14:17.272Z,1018.89
2017-05-03T03:14:58.133Z,1018.84
2017-05-03T03:15:39.016Z,1018.89
2017-05-03T03:16:19.902Z,1018.93
2017-05-03T03:17:00.777Z,1018.88
2017-05-03T03:17:41.662Z,1018.97
2017-05-03T03:18:22.551Z,1018.92
2017-05-03T03:19:03.451Z,1018.93
2017-05-03T03:19:44.327Z,1018.96
2017-05-03T03:20:25.209Z,1018.94
2017-05-03T03:21:06.099Z,1018.94
2017-05-03T03:21:46.981Z,1018.92
2017-05-03T03:22:27.860Z,1018.96
2017-05-03T03:23:08.733Z,1018.95
2017-05-03T03:23:49.622Z,1018.96
2017-05-03T03:24:30.498Z,1018.97
2017-05-03T03:25:11.398Z,1018.98
2017-05-03T03:25:52.285Z,1018.95
2017-05-03T03:26:33.169Z,1018.96
2017-05-03T03:27:14.073Z,1018.95
2017-05-03T03:27:54.944Z,1018.96
2017-05-03T03:28:35.810Z,1018.96
2017-05-03T03:29:16.678Z,1018.96
2017-05-03T03:29:57.576Z,1018.95
2017-05-03T03:30:38.451Z,1018.96
2017-05-03T03:31:19.327Z,1018.98
2017-05-03T03:32:00.182Z,1018.99
2017-05-03T03:32:41.059Z,1019
2017-05-03T03:33:21.918Z,1019.02
2017-05-03T03:34:02.789Z,1019.05
2017-05-03T03:34:43.685Z,1018.99
2017-05-03T03:35:24.561Z,1019.04
2017-05-03T03:36:05.446Z,1019.03
2017-05-03T03:36:46.318Z,1019.03
2017-05-03T03:37:27.202Z,1019.04
2017-05-03T03:38:08.097Z,1019.01
2017-05-03T03:38:48.994Z,1019.03
2017-05-03T03:39:29.887Z,1019.03
2017-05-03T03:40:10.777Z,1019.06
2017-05-03T03:40:51.665Z,1019.08
2017-05-03T03:41:32.551Z,1019.07
2017-05-03T03:42:13.436Z,1019.09
2017-05-03T03:42:54.311Z,1019.08
2017-05-03T03:43:35.204Z,1019.12
2017-05-03T03:44:16.094Z,1019.07
2017-05-03T03:44:56.983Z,1019.04
2017-05-03T03:45:37.864Z,1019.03
2017-05-03T03:46:18.733Z,1018.96
2017-05-03T03:46:59.606Z,1019
2017-05-03T03:47:40.487Z,1018.99
2017-05-03T03:48:21.381Z,1018.99
2017-05-03T03:49:02.249Z,1018.96
2017-05-03T03:49:43.122Z,1018.89
2017-05-03T03:50:24.018Z,1018.98
2017-05-03T03:51:04.905Z,1018.95
2017-05-03T03:51:45.784Z,1018.97
2017-05-03T03:52:26.662Z,1019.02
2017-05-03T03:53:07.559Z,1019.01
2017-05-03T03:53:48.447Z,1019.02
2017-05-03T03:54:29.317Z,1018.97
2017-05-03T03:55:10.210Z,1019.02
2017-05-03T03:55:51.109Z,1018.95
2017-05-03T03:56:31.985Z,1018.96
2017-05-03T03:57:12.868Z,1018.93
2017-05-03T03:57:53.763Z,1018.98
2017-05-03T03:58:34.648Z,1018.99
2017-05-03T03:59:15.523Z,1018.98
2017-05-03T03:59:56.407Z,1019.01
2017-05-03T04:00:37.279Z,1019
2017-05-03T04:01:18.163Z,1019.03
2017-05-03T04:01:59.042Z,1019.03
2017-05-03T04:02:39.914Z,1019.04
2017-05-03T04:03:20.791Z,1019.02
2017-05-03T04:04:01.711Z,1019.03
2017-05-03T04:04:42.584Z,1019.02
2017-05-03T04:05:23.434Z,1019.05
2017-05-03T04:06:04.306Z,1019.01
2017-05-03T04:06:45.186Z,1019.08
2017-05-03T04:07:26.097Z,1019.08
2017-05-03T04:08:06.978Z,1019.08
2017-05-03T04:08:47.859Z,1019.1
2017-05-03T04:09:28.733Z,1019.11
2017-05-03T04:10:09.606Z,1019.11
2017-05-03T04:10:50.459Z,1019.08
2017-05-03T04:11:31.327Z,1019.09
2017-05-03T04:12:12.205Z,1019.1
2017-05-03T04:12:53.089Z,1019.08
2017-05-03T04:13:33.974Z,1019.08
2017-05-03T04:14:14.851Z,1019.09
2017-05-03T04:14:55.752Z,1019.12
2017-05-03T04:15:36.647Z,1019.14
2017-05-03T04:16:17.533Z,1019.18
2017-05-03T04:16:58.418Z,1019.2
2017-05-03T04:17:39.317Z,1019.23
2017-05-03T04:18:20.183Z,1019.19
2017-05-03T04:19:01.057Z,1019.24
2017-05-03T04:19:41.931Z,1019.2
2017-05-03T04:20:22.802Z,1019.25
2017-05-03T04:21:03.692Z,1019.24
2017-05-03T04:21:44.578Z,1019.22
2017-05-03T04:22:25.448Z,1019.24
2017-05-03T04:23:06.315Z,1019.2
2017-05-03T04:23:47.206Z,1019.26
2017-05-03T04:24:28.112Z,1019.24
2017-05-03T04:25:08.973Z,1019.24
2017-05-03T04:25:49.848Z,1019.26
2017-05-03T04:26:30.760Z,1019.29
2017-05-03T04:27:11.649Z,1019.27
2017-05-03T04:27:52.526Z,1019.3
2017-05-03T04:28:33.416Z,1019.29
2017-05-03T04:29:14.315Z,1019.3
2017-05-03T04:29:55.172Z,1019.26
2017-05-03T04:30:36.028Z,1019.27
2017-05-03T04:31:16.907Z,1019.29
2017-05-03T04:31:57.793Z,1019.35
2017-05-03T04:32:38.678Z,1019.3
2017-05-03T04:33:19.556Z,1019.34
2017-05-03T04:34:00.424Z,1019.37
2017-05-03T04:34:41.322Z,1019.37
2017-05-03T04:35:22.216Z,1019.36
2017-05-03T04:36:03.091Z,1019.36
2017-05-03T04:36:44.022Z,1019.38
2017-05-03T04:37:24.903Z,1019.39
2017-05-03T04:38:05.776Z,1019.4
2017-05-03T04:38:46.659Z,1019.45
2017-05-03T04:39:27.548Z,1019.47
2017-05-03T04:40:08.442Z,1019.52
2017-05-03T04:40:49.312Z,1019.51
2017-05-03T04:41:30.205Z,1019.52
2017-05-03T04:42:11.092Z,1019.54
2017-05-03T04:42:51.962Z,1019.51
2017-05-03T04:43:32.836Z,1019.53
2017-05-03T04:44:13.755Z,1019.52
2017-05-03T04:44:54.630Z,1019.54
2017-05-03T04:45:35.513Z,1019.49
2017-05-03T04:46:16.400Z,1019.49
2017-05-03T04:46:57.303Z,1019.49
2017-05-03T04:47:38.218Z,1019.52
2017-05-03T04:48:19.113Z,1019.53
2017-05-03T04:49:00.027Z,1019.57
2017-05-03T04:49:41.557Z,1019.53
2017-05-03T04:50:22.750Z,1019.49
2017-05-03T04:51:03.612Z,1019.54
2017-05-03T04:51:44.487Z,1019.56
2017-05-03T04:52:25.420Z,1019.52
2017-05-03T04:53:06.278Z,1019.56
2017-05-03T04:53:47.155Z,1019.58
2017-05-03T04:54:28.019Z,1019.58
2017-05-03T04:55:08.900Z,1019.54
2017-05-03T04:55:49.788Z,1019.53
2017-05-03T04:56:30.665Z,1019.52
2017-05-03T04:57:11.534Z,1019.52
2017-05-03T04:57:52.423Z,1019.51
2017-05-03T04:58:33.310Z,1019.55
2017-05-03T04:59:14.178Z,1019.53
2017-05-03T04:59:55.039Z,1019.55
2017-05-03T05:00:35.916Z,1019.58
2017-05-03T05:01:16.791Z,1019.56
2017-05-03T05:01:57.665Z,1019.58
2017-05-03T05:02:38.562Z,1019.58
2017-05-03T05:03:19.465Z,1019.57
2017-05-03T05:04:00.377Z,1019.55
2017-05-03T05:04:41.263Z,1019.61
2017-05-03T05:05:22.140Z,1019.59
2017-05-03T05:06:03.017Z,1019.58
2017-05-03T05:06:43.921Z,1019.59
2017-05-03T05:07:24.796Z,1019.53
2017-05-03T05:08:05.666Z,1019.57
2017-05-03T05:08:46.551Z,1019.58
2017-05-03T05:09:27.444Z,1019.6
2017-05-03T05:10:08.330Z,1019.62
2017-05-03T05:10:49.203Z,1019.62
2017-05-03T05:11:30.088Z,1019.66
2017-05-03T05:12:10.982Z,1019.67
2017-05-03T05:12:51.867Z,1019.67
2017-05-03T05:13:32.748Z,1019.71
2017-05-03T05:14:13.611Z,1019.69
2017-05-03T05:14:54.482Z,1019.7
2017-05-03T05:15:35.364Z,1019.66
2017-05-03T05:16:16.232Z,1019.65
2017-05-03T05:16:57.103Z,1019.69
2017-05-03T05:17:37.975Z,1019.66
2017-05-03T05:18:18.873Z,1019.66
2017-05-03T05:18:59.731Z,1019.71
2017-05-03T05:19:40.613Z,1019.71
2017-05-03T05:20:21.490Z,1019.69
2017-05-03T05:21:02.360Z,1019.74
2017-05-03T05:21:43.237Z,1019.72
2017-05-03T05:22:24.134Z,1019.73
2017-05-03T05:23:05.006Z,1019.76
2017-05-03T05:23:45.884Z,1019.77
2017-05-03T05:24:26.761Z,1019.77
2017-05-03T05:25:07.628Z,1019.76
2017-05-03T05:25:48.497Z,1019.76
2017-05-03T05:26:29.358Z,1019.78
2017-05-03T05:27:10.236Z,1019.78
2017-05-03T05:27:51.105Z,1019.78
2017-05-03T05:28:31.989Z,1019.77
2017-05-03T05:29:12.879Z,1019.77
2017-05-03T05:29:53.742Z,1019.78
2017-05-03T05:30:34.618Z,1019.79
2017-05-03T05:31:15.502Z,1019.78
2017-05-03T05:31:56.382Z,1019.75
2017-05-03T05:32:37.276Z,1019.78
2017-05-03T05:33:18.124Z,1019.72
2017-05-03T05:33:58.984Z,1019.75
2017-05-03T05:34:39.863Z,1019.77
2017-05-03T05:35:20.751Z,1019.77
2017-05-03T05:36:01.688Z,1019.75
2017-05-03T05:36:42.575Z,1019.75
2017-05-03T05:37:23.455Z,1019.77
2017-05-03T05:38:04.334Z,1019.73
2017-05-03T05:38:45.211Z,1019.74
2017-05-03T05:39:26.103Z,1019.7
2017-05-03T05:40:07.024Z,1019.72
2017-05-03T05:40:47.902Z,1019.71
2017-05-03T05:41:28.789Z,1019.74
2017-05-03T05:42:09.671Z,1019.74
2017-05-03T05:42:50.549Z,1019.76
2017-05-03T05:43:31.434Z,1019.71
2017-05-03T05:44:12.307Z,1019.75
2017-05-03T05:44:53.206Z,1019.74
2017-05-03T05:45:34.061Z,1019.73
2017-05-03T05:46:14.948Z,1019.75
2017-05-03T05:46:55.838Z,1019.7
2017-05-03T05:47:36.737Z,1019.67
2017-05-03T05:48:17.604Z,1019.68
2017-05-03T05:48:58.460Z,1019.7
2017-05-03T05:49:39.338Z,1019.71
2017-05-03T05:50:20.216Z,1019.69
2017-05-03T05:51:01.111Z,1019.7
2017-05-03T05:51:41.985Z,1019.71
2017-05-03T05:52:22.865Z,1019.67
2017-05-03T05:53:03.741Z,1019.7
2017-05-03T05:53:44.626Z,1019.7
2017-05-03T05:54:25.517Z,1019.74
2017-05-03T05:55:06.377Z,1019.72
2017-05-03T05:55:47.265Z,1019.74
2017-05-03T05:56:28.169Z,1019.74
2017-05-03T05:57:09.048Z,1019.74
2017-05-03T05:57:49.913Z,1019.74
2017-05-03T05:58:30.793Z,1019.72
2017-05-03T05:59:11.656Z,1019.71
2017-05-03T05:59:52.534Z,1019.7
2017-05-03T06:00:33.419Z,1019.78
2017-05-03T06:01:14.307Z,1019.77
2017-05-03T06:01:55.195Z,1019.76
2017-05-03T06:02:36.081Z,1019.78
2017-05-03T06:03:16.974Z,1019.76
2017-05-03T06:03:57.858Z,1019.75
2017-05-03T06:04:38.746Z,1019.75
2017-05-03T06:05:19.652Z,1019.75
2017-05-03T06:06:00.537Z,1019.77
2017-05-03T06:06:41.425Z,1019.78
2017-05-03T06:07:22.315Z,1019.79
2017-05-03T06:08:03.201Z,1019.8
2017-05-03T06:08:44.079Z,1019.8
2017-05-03T06:09:24.972Z,1019.81
2017-05-03T06:10:05.860Z,1019.9
2017-05-03T06:10:46.758Z,1019.84
2017-05-03T06:11:27.646Z,1019.85
2017-05-03T06:12:08.538Z,1019.84
2017-05-03T06:12:49.408Z,1019.84
2017-05-03T06:13:30.280Z,1019.87
2017-05-03T06:14:11.179Z,1019.88
2017-05-03T06:14:52.076Z,1019.82
2017-05-03T06:15:32.955Z,1019.84
2017-05-03T06:16:13.831Z,1019.85
2017-05-03T06:16:54.722Z,1019.82
2017-05-03T06:17:35.601Z,1019.84
2017-05-03T06:18:16.472Z,1019.82
2017-05-03T06:18:57.434Z,1019.83
2017-05-03T06:19:38.290Z,1019.84
2017-05-03T06:20:19.164Z,1019.83
2017-05-03T06:21:00.043Z,1019.83
2017-05-03T06:21:40.948Z,1019.88
2017-05-03T06:22:21.825Z,1019.88
2017-05-03T06:23:02.705Z,1019.87
2017-05-03T06:23:43.598Z,1019.87
2017-05-03T06:24:24.489Z,1019.9
2017-05-03T06:25:05.373Z,1019.91
2017-05-03T06:25:46.268Z,1019.91
2017-05-03T06:26:27.159Z,1019.87
2017-05-03T06:27:08.029Z,1019.89
2017-05-03T06:27:48.959Z,1019.89
2017-05-03T06:28:29.844Z,1019.88
2017-05-03T06:29:10.733Z,1019.87
2017-05-03T06:29:51.630Z,1019.9
2017-05-03T06:30:32.512Z,1019.89
2017-05-03T06:31:13.387Z,1019.89
2017-05-03T06:31:54.264Z,1019.89
2017-05-03T06:32:35.136Z,1019.88
2017-05-03T06:33:16.013Z,1019.88
2017-05-03T06:33:56.899Z,1019.89
2017-05-03T06:34:37.765Z,1019.83
2017-05-03T06:35:18.647Z,1019.86
2017-05-03T06:35:59.523Z,1019.87
2017-05-03T06:36:40.420Z,1019.86
2017-05-03T06:37:21.317Z,1019.91
2017-05-03T06:38:02.196Z,1019.9
2017-05-03T06:38:43.081Z,1019.9
2017-05-03T06:39:23.968Z,1019.86
2017-05-03T06:40:04.849Z,1019.89
2017-05-03T06:40:45.726Z,1019.88
2017-05-03T06:41:26.628Z,1019.84
2017-05-03T06:42:07.512Z,1019.86
2017-05-03T06:42:48.389Z,1019.87
2017-05-03T06:43:29.277Z,1019.83
2017-05-03T06:44:10.177Z,1019.84
2017-05-03T06:44:51.055Z,1019.82
2017-05-03T06:45:31.932Z,1019.86
2017-05-03T06:46:12.826Z,1019.91
2017-05-03T06:46:53.714Z,1019.9
2017-05-03T06:47:34.588Z,1019.85
2017-05-03T06:48:15.481Z,1019.87
2017-05-03T06:48:56.364Z,1019.87
2017-05-03T06:49:37.257Z,1019.89
2017-05-03T06:50:18.140Z,1019.86
2017-05-03T06:50:59.044Z,1019.89
2017-05-03T06:51:39.946Z,1019.94
2017-05-03T06:52:20.813Z,1019.89
2017-05-03T06:53:01.707Z,1019.92
2017-05-03T06:53:42.595Z,1019.93
2017-05-03T06:54:23.484Z,1019.94
2017-05-03T06:55:04.349Z,1019.95
2017-05-03T06:55:45.235Z,1019.9
2017-05-03T06:56:26.113Z,1019.91
2017-05-03T06:57:06.999Z,1019.96
2017-05-03T06:57:47.890Z,1019.96
2017-05-03T06:58:28.766Z,1019.97
2017-05-03T06:59:09.650Z,1019.98
2017-05-03T06:59:50.538Z,1019.99
2017-05-03T07:00:31.424Z,1019.98
2017-05-03T07:01:12.303Z,1019.94
2017-05-03T07:01:53.195Z,1019.97
2017-05-03T07:02:34.076Z,1019.93
2017-05-03T07:03:14.966Z,1019.91
2017-05-03T07:03:55.869Z,1019.93
2017-05-03T07:04:36.746Z,1019.94
2017-05-03T07:05:17.640Z,1019.93
2017-05-03T07:05:58.573Z,1019.94
2017-05-03T07:06:39.443Z,1019.99
2017-05-03T07:07:20.336Z,1019.93
2017-05-03T07:08:01.213Z,1019.95
2017-05-03T07:08:42.103Z,1020.01
2017-05-03T07:09:22.979Z,1019.95
2017-05-03T07:10:03.863Z,1019.96
2017-05-03T07:10:44.765Z,1019.95
2017-05-03T07:11:25.639Z,1019.95
2017-05-03T07:12:06.527Z,1019.95
2017-05-03T07:12:47.432Z,1019.97
2017-05-03T07:13:28.300Z,1020.02
2017-05-03T07:14:09.184Z,1019.96
2017-05-03T07:14:50.076Z,1020.01
2017-05-03T07:15:31.021Z,1020
2017-05-03T07:16:11.906Z,1019.99
2017-05-03T07:16:52.791Z,1019.99
2017-05-03T07:17:33.674Z,1019.98
2017-05-03T07:18:14.564Z,1020.03
2017-05-03T07:18:55.446Z,1020.02
2017-05-03T07:19:36.326Z,1020.03
2017-05-03T07:20:17.214Z,1020.01
2017-05-03T07:20:58.106Z,1020.05
2017-05-03T07:21:38.997Z,1020.07
2017-05-03T07:22:19.865Z,1020.06
2017-05-03T07:23:00.743Z,1020.03
2017-05-03T07:23:41.667Z,1020.03
2017-05-03T07:24:22.523Z,1020.03
2017-05-03T07:25:03.413Z,1020.02
2017-05-03T07:25:44.301Z,1020.03
2017-05-03T07:26:25.187Z,1020.02
2017-05-03T07:27:06.095Z,1020.04
2017-05-03T07:27:46.987Z,1020.01
2017-05-03T07:28:27.885Z,1020
2017-05-03T07:29:08.751Z,1020.02
2017-05-03T07:29:49.628Z,1020.03
2017-05-03T07:30:30.529Z,1020.04
2017-05-03T07:31:11.420Z,1020.08
2017-05-03T07:31:52.320Z,1020.04
2017-05-03T07:32:33.201Z,1020.01
2017-05-03T07:33:14.067Z,1020.02
2017-05-03T07:33:54.951Z,1019.99
2017-05-03T07:34:35.840Z,1020.01
2017-05-03T07:35:16.725Z,1019.99
2017-05-03T07:35:57.615Z,1019.98
2017-05-03T07:36:38.497Z,1019.99
2017-05-03T07:37:19.384Z,1019.98
2017-05-03T07:38:00.280Z,1019.99
2017-05-03T07:38:41.175Z,1020.02
2017-05-03T07:39:22.049Z,1020.02
2017-05-03T07:40:02.950Z,1020.02
2017-05-03T07:40:43.836Z,1019.99
2017-05-03T07:41:24.707Z,1019.99
2017-05-03T07:42:05.582Z,1019.95
2017-05-03T07:42:46.478Z,1020
2017-05-03T07:43:27.363Z,1020.02
2017-05-03T07:44:08.245Z,1019.95
2017-05-03T07:44:49.133Z,1019.99
2017-05-03T07:45:30.035Z,1020.03
2017-05-03T07:46:10.919Z,1020.02
2017-05-03T07:46:51.798Z,1019.97
2017-05-03T07:47:32.687Z,1020.05
2017-05-03T07:48:13.575Z,1020.06
2017-05-03T07:48:54.470Z,1020.03
2017-05-03T07:49:35.362Z,1020.03
2017-05-03T07:50:16.248Z,1020.03
2017-05-03T07:50:57.128Z,1020.07
2017-05-03T07:51:38.004Z,1020.05
2017-05-03T07:52:18.897Z,1020.09
2017-05-03T07:52:59.776Z,1020.08
2017-05-03T07:53:40.663Z,1020.11
2017-05-03T07:54:21.539Z,1020.11
2017-05-03T07:55:02.430Z,1020.12
2017-05-03T07:55:43.319Z,1020.13
2017-05-03T07:56:24.188Z,1020.11
2017-05-03T07:57:05.070Z,1020.08
2017-05-03T07:57:46.006Z,1020.09
2017-05-03T07:58:26.859Z,1020.11
2017-05-03T07:59:07.752Z,1020.12
2017-05-03T07:59:48.639Z,1020.09
2017-05-03T08:00:29.521Z,1020.13
2017-05-03T08:01:10.407Z,1020.09
2017-05-03T08:01:51.317Z,1020.11
2017-05-03T08:02:32.195Z,1020.14
2017-05-03T08:03:13.072Z,1020.11
2017-05-03T08:03:53.951Z,1020.17
2017-05-03T08:04:34.836Z,1020.17
2017-05-03T08:05:15.711Z,1020.19
2017-05-03T08:05:56.590Z,1020.18
2017-05-03T08:06:37.480Z,1020.18
2017-05-03T08:07:18.370Z,1020.19
2017-05-03T08:07:59.260Z,1020.19
2017-05-03T08:08:40.141Z,1020.19
2017-05-03T08:09:21.080Z,1020.17
2017-05-03T08:10:01.965Z,1020.15
2017-05-03T08:10:42.867Z,1020.19
2017-05-03T08:11:23.761Z,1020.2
2017-05-03T08:12:04.639Z,1020.19
2017-05-03T08:12:45.531Z,1020.18
2017-05-03T08:14:23.937Z,1020.28
2017-05-03T08:15:04.812Z,1020.25
2017-05-03T08:15:45.699Z,1020.27
2017-05-03T08:16:26.576Z,1020.26
2017-05-03T08:17:07.447Z,1020.23
2017-05-03T08:17:48.340Z,1020.22
2017-05-03T08:18:29.238Z,1020.24